createdAt,value
2019-03-31T04:02:00.251Z,30.37
2019-03-31T04:04:29.973Z,29.53
2019-03-31T04:06:59.284Z,25.73
2019-03-31T04:09:28.952Z,27.23
2019-03-31T04:11:58.288Z,29.93
2019-03-31T04:14:28.002Z,26.67
2019-03-31T04:16:57.376Z,30.40
2019-03-31T04:19:27.255Z,30.00
2019-03-31T04:21:56.657Z,27.90
2019-03-31T04:24:26.425Z,31.20
2019-03-31T04:26:55.755Z,27.97
2019-03-31T04:29:25.386Z,29.87
2019-03-31T04:31:54.788Z,28.77
2019-03-31T04:34:24.254Z,29.50
2019-03-31T04:36:54.127Z,28.27
2019-03-31T04:39:23.512Z,27.60
2019-03-31T04:41:52.836Z,30.40
2019-03-31T04:44:22.485Z,29.27
2019-03-31T04:46:51.944Z,31.67
2019-03-31T04:49:21.342Z,30.93
2019-03-31T04:51:51.121Z,30.30
2019-03-31T04:54:20.521Z,31.47
2019-03-31T04:56:49.827Z,29.80
2019-03-31T04:59:19.485Z,34.93
2019-03-31T05:01:49.495Z,31.17
2019-03-31T05:04:18.816Z,32.20
2019-03-31T05:06:48.400Z,31.90
2019-03-31T05:09:17.797Z,32.50
2019-03-31T05:11:47.115Z,30.33
2019-03-31T05:14:16.677Z,32.30
2019-03-31T05:16:46.072Z,32.77
2019-03-31T05:19:16.748Z,31.30
2019-03-31T05:21:46.923Z,33.67
2019-03-31T05:24:16.253Z,33.73
2019-03-31T05:26:45.623Z,31.07
2019-03-31T05:29:15.275Z,33.23
2019-03-31T05:31:45.310Z,33.37
2019-03-31T05:34:19.440Z,33.73
2019-03-31T05:36:46.008Z,30.13
2019-03-31T05:39:15.572Z,34.00
2019-03-31T05:41:45.257Z,34.43
2019-03-31T05:44:14.559Z,31.37
2019-03-31T05:46:44.003Z,32.30
2019-03-31T05:49:13.303Z,33.53
2019-03-31T05:51:42.623Z,30.77
2019-03-31T05:54:12.264Z,31.07
2019-03-31T05:56:41.847Z,33.63
2019-03-31T05:59:11.151Z,34.07
2019-03-31T06:01:40.576Z,27.87
2019-03-31T06:04:10.180Z,32.03
2019-03-31T06:06:39.824Z,30.27
2019-03-31T06:09:09.260Z,29.43
2019-03-31T06:11:38.592Z,33.83
2019-03-31T06:14:08.708Z,32.53
2019-03-31T06:16:38.023Z,31.50
2019-03-31T06:19:07.357Z,28.40
2019-03-31T06:21:36.655Z,33.83
2019-03-31T06:24:06.174Z,31.63
2019-03-31T06:26:35.488Z,31.40
2019-03-31T06:29:05.120Z,29.53
2019-03-31T06:31:34.442Z,32.57
2019-03-31T06:34:03.904Z,33.70
2019-03-31T06:36:33.315Z,34.90
2019-03-31T06:39:04.948Z,32.33
2019-03-31T06:41:34.731Z,35.57
2019-03-31T06:44:04.118Z,36.40
2019-03-31T06:46:33.439Z,33.37
2019-03-31T06:49:03.386Z,44.50
2019-03-31T06:51:33.051Z,34.17
2019-03-31T06:54:02.730Z,30.93
2019-03-31T06:56:32.391Z,32.17
2019-03-31T06:59:03.035Z,32.60
2019-03-31T07:01:37.894Z,33.30
2019-03-31T07:04:07.358Z,34.97
2019-03-31T07:06:37.000Z,35.90
2019-03-31T07:09:07.363Z,33.67
2019-03-31T07:11:36.772Z,33.40
2019-03-31T07:14:06.161Z,33.67
2019-03-31T07:16:35.780Z,35.40
2019-03-31T07:19:05.095Z,31.77
2019-03-31T07:21:35.107Z,37.30
2019-03-31T07:24:04.774Z,33.37
2019-03-31T07:26:34.168Z,34.90
2019-03-31T07:29:03.645Z,34.73
2019-03-31T07:31:33.372Z,36.60
2019-03-31T07:34:02.974Z,34.47
2019-03-31T07:36:32.587Z,35.87
2019-03-31T07:39:02.205Z,33.73
2019-03-31T07:41:31.996Z,36.40
2019-03-31T07:44:01.663Z,37.93
2019-03-31T07:46:31.551Z,38.23
2019-03-31T07:49:01.036Z,38.37
2019-03-31T07:51:30.635Z,39.37
2019-03-31T07:54:00.045Z,39.53
2019-03-31T07:56:30.186Z,40.70
2019-03-31T07:58:59.624Z,42.27
2019-03-31T08:01:29.635Z,39.27
2019-03-31T08:03:59.317Z,43.73
2019-03-31T08:06:28.698Z,45.27
2019-03-31T08:08:58.434Z,44.77
2019-03-31T08:11:28.618Z,49.50
2019-03-31T08:13:58.159Z,42.43
2019-03-31T08:16:27.936Z,46.50
2019-03-31T08:18:57.542Z,48.30
2019-03-31T08:21:26.927Z,44.43
2019-03-31T08:23:56.584Z,49.37
2019-03-31T08:26:26.384Z,51.73
2019-03-31T08:28:58.518Z,53.10
2019-03-31T08:31:26.832Z,55.83
2019-03-31T08:33:56.511Z,52.17
2019-03-31T08:36:25.818Z,51.33
2019-03-31T08:38:55.650Z,56.10
2019-03-31T08:41:25.555Z,51.40
2019-03-31T08:43:55.047Z,55.37
2019-03-31T08:46:24.968Z,57.30
2019-03-31T08:48:54.605Z,48.23
2019-03-31T08:51:24.020Z,51.63
2019-03-31T08:53:53.861Z,49.77
2019-03-31T08:56:23.723Z,50.67
2019-03-31T08:58:53.143Z,48.20
2019-03-31T09:01:22.888Z,51.47
2019-03-31T09:03:52.593Z,54.77
2019-03-31T09:06:22.320Z,50.70
2019-03-31T09:08:52.132Z,54.27
2019-03-31T09:11:21.695Z,53.10
2019-03-31T09:13:51.280Z,53.03
2019-03-31T09:16:20.954Z,54.37
2019-03-31T09:18:50.418Z,53.75
2019-03-31T09:21:19.876Z,52.97
2019-03-31T09:23:49.471Z,55.07
2019-03-31T09:26:18.880Z,53.68
2019-03-31T09:28:48.572Z,53.13
2019-03-31T09:31:17.959Z,54.83
2019-03-31T09:33:47.288Z,54.63
2019-03-31T09:36:16.972Z,55.10
2019-03-31T09:38:48.509Z,52.98
2019-03-31T09:41:17.988Z,56.27
2019-03-31T09:43:47.407Z,56.55
2019-03-31T09:46:17.052Z,57.67
2019-03-31T09:48:46.434Z,53.30
2019-03-31T09:51:15.763Z,56.33
2019-03-31T09:53:45.245Z,57.65
2019-03-31T09:56:15.319Z,61.88
2019-03-31T09:58:44.839Z,58.83
2019-03-31T10:01:14.596Z,60.70
2019-03-31T10:03:44.302Z,62.88
2019-03-31T10:06:13.785Z,61.23
2019-03-31T10:08:43.716Z,61.50
2019-03-31T10:11:13.304Z,59.50
2019-03-31T10:13:42.607Z,63.43
2019-03-31T10:16:12.232Z,60.03
2019-03-31T10:18:41.571Z,66.85
2019-03-31T10:21:10.948Z,58.53
2019-03-31T10:23:40.522Z,59.53
2019-03-31T10:26:10.348Z,62.65
2019-03-31T10:28:39.950Z,60.28
2019-03-31T10:31:09.259Z,61.30
2019-03-31T10:33:38.928Z,64.45
2019-03-31T10:36:08.572Z,62.17
2019-03-31T10:38:38.284Z,65.22
2019-03-31T10:41:07.942Z,64.40
2019-03-31T10:43:37.327Z,60.50
2019-03-31T10:46:07.161Z,58.87
2019-03-31T10:48:36.911Z,57.08
2019-03-31T10:51:06.396Z,58.78
2019-03-31T10:53:35.957Z,58.25
2019-03-31T10:56:05.450Z,55.88
2019-03-31T10:58:35.170Z,53.28
2019-03-31T11:01:04.648Z,56.92
2019-03-31T11:03:33.966Z,59.85
2019-03-31T11:06:03.359Z,57.25
2019-03-31T11:08:33.355Z,67.20
2019-03-31T11:11:02.716Z,57.62
2019-03-31T11:13:32.765Z,54.65
2019-03-31T11:16:02.348Z,60.52
2019-03-31T11:18:31.763Z,57.67
2019-03-31T11:21:05.840Z,62.48
2019-03-31T11:23:35.480Z,60.95
2019-03-31T11:26:05.227Z,58.75
2019-03-31T11:28:34.540Z,65.00
2019-03-31T11:31:03.905Z,67.05
2019-03-31T11:33:33.286Z,59.38
2019-03-31T11:36:02.920Z,65.22
2019-03-31T11:38:32.231Z,63.50
2019-03-31T11:41:01.887Z,60.88
2019-03-31T11:43:31.535Z,63.50
2019-03-31T11:46:01.557Z,59.65
2019-03-31T11:48:30.880Z,62.15
2019-03-31T11:51:00.549Z,60.50
2019-03-31T11:53:30.028Z,62.63
2019-03-31T11:55:59.528Z,64.85
2019-03-31T11:58:32.137Z,59.93
2019-03-31T12:00:59.903Z,61.83
2019-03-31T12:03:31.076Z,57.53
2019-03-31T12:06:01.438Z,54.10
2019-03-31T12:08:31.192Z,57.27
2019-03-31T12:11:00.968Z,61.68
2019-03-31T12:13:31.128Z,58.43
2019-03-31T12:16:00.515Z,53.08
2019-03-31T12:18:29.833Z,55.10
2019-03-31T12:20:59.237Z,55.55
2019-03-31T12:23:28.612Z,66.67
2019-03-31T12:25:58.084Z,60.43
2019-03-31T12:28:27.654Z,57.93
2019-03-31T12:30:57.336Z,57.93
2019-03-31T12:33:26.668Z,55.90
2019-03-31T12:35:56.324Z,56.05
2019-03-31T12:38:25.710Z,52.30
2019-03-31T12:40:55.408Z,53.13
2019-03-31T12:43:25.088Z,52.62
2019-03-31T12:45:54.725Z,56.18
2019-03-31T12:48:24.098Z,57.30
2019-03-31T12:50:53.769Z,53.50
2019-03-31T12:53:23.431Z,60.07
2019-03-31T12:56:00.081Z,53.17
2019-03-31T12:58:24.326Z,56.80
2019-03-31T13:00:53.977Z,58.47
2019-03-31T13:03:23.529Z,55.37
2019-03-31T13:05:52.920Z,59.63
2019-03-31T13:08:22.578Z,53.70
2019-03-31T13:10:51.978Z,53.27
2019-03-31T13:13:21.599Z,49.43
2019-03-31T13:15:51.149Z,51.17
2019-03-31T13:18:20.637Z,49.50
2019-03-31T13:20:50.460Z,54.37
2019-03-31T13:23:20.034Z,52.40
2019-03-31T13:25:50.602Z,55.00
2019-03-31T13:28:19.988Z,49.13
2019-03-31T13:30:49.319Z,46.43
2019-03-31T13:33:18.940Z,45.27
2019-03-31T13:35:48.300Z,50.03
2019-03-31T13:38:18.604Z,48.13
2019-03-31T13:40:50.502Z,53.13
2019-03-31T13:43:19.927Z,53.23
2019-03-31T13:45:49.354Z,54.67
2019-03-31T13:48:19.044Z,50.87
2019-03-31T13:50:48.676Z,52.73
2019-03-31T13:53:18.127Z,52.40
2019-03-31T13:55:47.522Z,56.50
2019-03-31T13:58:19.055Z,51.43
2019-03-31T14:00:48.225Z,55.00
2019-03-31T14:03:17.877Z,57.23
2019-03-31T14:05:47.195Z,51.37
2019-03-31T14:08:25.600Z,50.40
2019-03-31T14:10:48.382Z,51.43
2019-03-31T14:13:17.695Z,50.93
2019-03-31T14:15:47.030Z,51.90
2019-03-31T14:18:16.516Z,48.93
2019-03-31T14:20:45.920Z,50.47
2019-03-31T14:23:15.264Z,45.23
2019-03-31T14:25:44.659Z,47.57
2019-03-31T14:28:13.988Z,43.73
2019-03-31T14:30:43.318Z,44.17
2019-03-31T14:33:12.649Z,46.47
2019-03-31T14:35:42.123Z,40.87
2019-03-31T14:38:11.431Z,38.30
2019-03-31T14:40:41.188Z,42.13
2019-03-31T14:43:10.903Z,40.10
2019-03-31T14:45:41.020Z,40.83
2019-03-31T14:48:10.928Z,42.57
2019-03-31T14:50:40.694Z,40.33
2019-03-31T14:53:10.442Z,43.27
2019-03-31T14:55:39.832Z,40.10
2019-03-31T14:58:09.278Z,40.47
2019-03-31T15:00:39.079Z,41.80
2019-03-31T15:03:08.888Z,38.23
2019-03-31T15:05:38.986Z,43.47
2019-03-31T15:08:08.378Z,43.60
2019-03-31T15:10:37.795Z,44.00
2019-03-31T15:13:07.401Z,44.57
2019-03-31T15:15:37.504Z,44.27
2019-03-31T15:18:08.136Z,39.10
2019-03-31T15:20:38.029Z,42.07
2019-03-31T15:23:08.415Z,37.40
2019-03-31T15:25:37.926Z,42.07
2019-03-31T15:28:07.798Z,43.00
2019-03-31T15:30:37.593Z,38.10
2019-03-31T15:33:07.465Z,39.30
2019-03-31T15:35:37.827Z,41.37
2019-03-31T15:38:08.042Z,40.20
2019-03-31T15:40:38.758Z,40.53
2019-03-31T15:43:09.086Z,39.63
2019-03-31T15:45:38.883Z,37.73
2019-03-31T15:48:10.332Z,38.63
2019-03-31T15:50:40.731Z,37.63
2019-03-31T15:53:14.219Z,36.97
2019-03-31T15:55:48.997Z,34.33
2019-03-31T15:58:20.806Z,32.83
2019-03-31T16:00:50.531Z,26.23
2019-03-31T16:03:24.119Z,26.30
2019-03-31T16:05:54.445Z,26.43
2019-03-31T16:08:25.969Z,19.90
2019-03-31T16:10:58.879Z,20.27
2019-03-31T16:13:32.867Z,21.23
2019-03-31T16:16:04.840Z,18.47
2019-03-31T16:18:34.284Z,21.20
2019-03-31T16:21:03.832Z,18.73
2019-03-31T16:23:33.684Z,19.60
2019-03-31T16:26:03.625Z,19.40
2019-03-31T16:28:32.524Z,17.07
2019-03-31T16:31:01.985Z,16.47
2019-03-31T16:33:31.523Z,19.03
2019-03-31T16:36:00.657Z,15.70
2019-03-31T16:38:29.488Z,13.90
2019-03-31T16:40:58.379Z,17.70
2019-03-31T16:43:27.782Z,14.33
2019-03-31T16:45:56.604Z,15.30
2019-03-31T16:48:25.818Z,13.40
2019-03-31T16:50:55.371Z,15.10
2019-03-31T16:53:24.888Z,13.80
2019-03-31T16:55:54.570Z,13.33
2019-03-31T16:58:23.376Z,15.00
2019-03-31T17:00:52.440Z,15.17
2019-03-31T17:03:21.656Z,11.20
2019-03-31T17:05:50.606Z,13.90
2019-03-31T17:08:19.744Z,12.83
2019-03-31T17:10:48.933Z,11.20
2019-03-31T17:13:17.748Z,12.27
2019-03-31T17:15:46.539Z,10.37
2019-03-31T17:18:15.456Z,12.23
2019-03-31T17:20:44.707Z,10.37
2019-03-31T17:23:14.246Z,12.67
2019-03-31T17:25:43.633Z,9.93
2019-03-31T17:28:13.231Z,8.80
2019-03-31T17:30:42.671Z,11.70
2019-03-31T17:33:11.720Z,9.43
2019-03-31T17:35:40.497Z,9.00
2019-03-31T17:38:09.727Z,10.07
2019-03-31T17:40:38.496Z,11.10
2019-03-31T17:43:07.692Z,10.63
2019-03-31T17:45:37.463Z,11.70
2019-03-31T17:48:06.247Z,11.03
2019-03-31T17:50:35.065Z,10.47
2019-03-31T17:53:04.191Z,9.27
2019-03-31T17:55:34.459Z,7.80
2019-03-31T17:58:03.555Z,7.10
2019-03-31T18:00:32.343Z,8.57
2019-03-31T18:03:01.106Z,8.40
2019-03-31T18:05:30.323Z,8.70
2019-03-31T18:08:00.140Z,10.67
2019-03-31T18:10:29.333Z,8.40
2019-03-31T18:12:58.395Z,8.40
2019-03-31T18:15:27.221Z,10.87
2019-03-31T18:17:56.416Z,9.17
2019-03-31T18:20:25.192Z,8.10
2019-03-31T18:22:54.324Z,9.80
2019-03-31T18:25:23.143Z,8.23
2019-03-31T18:27:51.923Z,9.10
2019-03-31T18:30:21.180Z,9.03
2019-03-31T18:32:50.045Z,10.83
2019-03-31T18:35:19.161Z,8.27
2019-03-31T18:37:48.561Z,10.63
2019-03-31T18:40:17.337Z,8.63
2019-03-31T18:42:46.451Z,8.00
2019-03-31T18:45:15.250Z,7.20
2019-03-31T18:47:44.050Z,9.67
2019-03-31T18:50:12.974Z,9.80
2019-03-31T18:52:42.079Z,8.50
2019-03-31T18:55:27.599Z,9.63
2019-03-31T18:58:20.767Z,9.37
2019-03-31T19:01:15.025Z,8.63
2019-03-31T19:04:06.255Z,8.97
2019-03-31T19:07:06.567Z,9.50
2019-03-31T19:09:55.718Z,11.67
2019-03-31T19:12:45.195Z,11.67
2019-03-31T19:15:39.801Z,10.23
2019-03-31T19:18:16.401Z,9.87
2019-03-31T19:21:10.662Z,12.63
2019-03-31T19:23:47.425Z,10.90
2019-03-31T19:26:48.385Z,9.30
2019-03-31T19:29:34.060Z,13.17
2019-03-31T19:32:21.888Z,13.77
2019-03-31T19:35:08.743Z,14.47
2019-03-31T19:37:49.496Z,12.37
2019-03-31T19:40:29.826Z,10.73
2019-03-31T19:43:20.550Z,11.37
2019-03-31T19:45:57.625Z,12.60
2019-03-31T19:49:01.004Z,11.83
2019-03-31T19:52:07.778Z,15.03
2019-03-31T19:54:43.428Z,12.97
2019-03-31T19:57:40.075Z,15.27
2019-03-31T20:00:28.408Z,16.13
2019-03-31T20:03:12.461Z,15.93
2019-03-31T20:05:59.779Z,16.27
2019-03-31T20:08:39.939Z,12.93
2019-03-31T20:11:34.234Z,18.90
2019-03-31T20:14:28.588Z,32.60
2019-03-31T20:17:13.257Z,26.40
2019-03-31T20:19:50.156Z,20.23
2019-03-31T20:22:31.207Z,15.93
2019-03-31T20:25:09.432Z,15.20
2019-03-31T20:28:03.503Z,11.53
2019-03-31T20:30:47.964Z,11.87
2019-03-31T20:33:34.771Z,12.20
2019-03-31T20:36:12.098Z,12.73
2019-03-31T20:39:06.381Z,15.03
2019-03-31T20:42:12.799Z,14.20
2019-03-31T20:44:41.939Z,14.73
2019-03-31T20:47:11.422Z,13.63
2019-03-31T20:49:40.618Z,11.43
2019-03-31T20:52:09.463Z,11.93
2019-03-31T20:54:38.216Z,14.90
2019-03-31T20:57:07.004Z,12.50
2019-03-31T20:59:36.127Z,13.67
